Time;durP1;ratioP1;P1;durP2;ratioP2;P2;SDS_P1;SDS_P2;PMS_P1;PMS_P2;Temp;Humidity;BMP_temperature;BMP_pressure;BME280_temperature;BME280_humidity;BME280_pressure;Samples;Min_cycle;Max_cycle;Signal;HPM_P1;HPM_P2
2024/04/13 00:00:56;;;;;;;1.50;1.40;;;;;;;13.75;64.38;100081.31;5493170;26;40967;-80
2024/04/13 00:03:24;;;;;;;1.33;1.20;;;;;;;13.55;64.53;100049.66;5491144;26;42702;-83
2024/04/13 00:05:55;;;;;;;1.60;1.40;;;;;;;13.61;64.79;100066.13;5492710;26;43014;-81
2024/04/13 00:08:22;;;;;;;1.80;1.53;;;;;;;13.55;64.65;100060.28;5492698;26;42058;-84
2024/04/13 00:10:51;;;;;;;2.03;1.40;;;;;;;13.61;64.59;100073.25;5491689;26;39938;-78
2024/04/13 00:13:17;;;;;;;1.40;1.30;;;;;;;13.49;64.80;100068.59;5491110;26;40489;-85
2024/04/13 00:15:57;;;;;;;2.07;1.07;;;;;;;13.56;65.12;100080.66;5492382;26;42674;-82
2024/04/13 00:18:23;;;;;;;1.93;1.60;;;;;;;13.53;64.67;100084.34;5491403;26;42230;-82
2024/04/13 00:20:55;;;;;;;1.70;1.43;;;;;;;13.51;64.90;100085.34;5492643;26;41241;-79
2024/04/13 00:23:24;;;;;;;1.50;1.37;;;;;;;13.38;64.88;100065.69;5492687;26;41631;-80
2024/04/13 00:25:53;;;;;;;2.80;1.23;;;;;;;13.46;65.14;100082.09;5490773;26;42760;-79
2024/04/13 00:28:20;;;;;;;1.37;1.20;;;;;;;13.30;65.67;100051.00;5492344;26;42196;-81
2024/04/13 00:30:49;;;;;;;1.70;1.47;;;;;;;13.28;66.06;100057.34;5492181;26;41187;-83
2024/04/13 00:33:16;;;;;;;2.50;1.50;;;;;;;13.35;66.15;100071.19;5492474;26;42634;-81
2024/04/13 00:35:45;;;;;;;2.17;1.60;;;;;;;13.15;65.87;100045.66;5491971;26;43033;-79
2024/04/13 00:38:14;;;;;;;1.30;1.20;;;;;;;13.07;66.05;100046.03;5492155;26;42206;-80
2024/04/13 00:40:44;;;;;;;1.60;1.30;;;;;;;13.22;65.75;100063.88;5492312;26;40023;-82
2024/04/13 00:43:11;;;;;;;1.70;1.50;;;;;;;13.28;66.09;100084.81;5492179;26;42537;-81
2024/04/13 00:45:45;;;;;;;3.23;1.50;;;;;;;13.26;65.87;100086.69;5490042;26;41569;-84
2024/04/13 00:48:13;;;;;;;1.47;1.30;;;;;;;13.10;66.12;100063.63;5491543;26;43391;-81
2024/04/13 00:50:47;;;;;;;1.30;1.20;;;;;;;13.12;66.10;100073.22;5490218;26;39652;-80
2024/04/13 00:53:18;;;;;;;1.90;1.47;;;;;;;13.17;66.45;100081.88;5490193;26;40460;-80
2024/04/13 00:55:47;;;;;;;2.43;1.40;;;;;;;13.02;66.54;100053.41;5491785;26;42849;-83
2024/04/13 00:58:15;;;;;;;3.00;1.20;;;;;;;13.04;67.31;100050.66;5492037;26;42186;-79
2024/04/13 01:00:46;;;;;;;2.80;1.50;;;;;;;13.16;67.52;100077.50;5491526;26;40033;-80
2024/04/13 01:03:13;;;;;;;2.00;1.80;;;;;;;13.07;67.71;100064.66;5491648;26;41693;-84
2024/04/13 01:05:42;;;;;;;1.30;1.20;;;;;;;13.06;67.21;100064.72;5491460;26;43861;-78
2024/04/13 01:08:09;;;;;;;1.70;1.33;;;;;;;13.15;67.42;100081.09;5491700;26;42215;-84
2024/04/13 01:10:40;;;;;;;2.13;1.60;;;;;;;12.93;67.20;100045.91;5491310;26;40300;-79
2024/04/13 01:13:09;;;;;;;1.57;1.30;;;;;;;13.08;67.46;100082.34;5489511;26;41957;-77
2024/04/13 01:15:38;;;;;;;2.67;1.33;;;;;;;12.94;67.56;100063.59;5459095;26;41987;-80
2024/04/13 01:18:05;;;;;;;1.60;1.50;;;;;;;13.02;67.61;100093.28;5491316;26;42015;-81
2024/04/13 01:20:35;;;;;;;1.20;1.10;;;;;;;12.97;67.83;100083.84;5492162;26;40203;-83
2024/04/13 01:23:05;;;;;;;2.07;1.60;;;;;;;12.89;68.05;100073.59;5495191;26;42985;-82
2024/04/13 01:25:37;;;;;;;1.53;1.43;;;;;;;12.88;68.64;100069.22;5494388;26;44117;-81
2024/04/13 01:28:04;;;;;;;1.93;1.60;;;;;;;12.80;68.51;100060.78;5494797;26;42127;-82
2024/04/13 01:30:34;;;;;;;1.57;1.30;;;;;;;12.86;68.55;100079.06;5492581;26;39596;-80
2024/04/13 01:33:00;;;;;;;2.17;1.57;;;;;;;12.85;68.77;100090.66;5495042;26;42363;-80
2024/04/13 01:35:30;;;;;;;1.40;1.10;;;;;;;12.81;68.83;100089.97;5494492;26;44076;-80
2024/04/13 01:37:56;;;;;;;2.20;1.60;;;;;;;12.71;68.75;100075.44;5505283;26;42268;-79
2024/04/13 01:40:25;;;;;;;2.33;1.47;;;;;;;12.74;68.81;100093.00;5501573;26;41460;-81
2024/04/13 01:42:55;;;;;;;2.90;1.90;;;;;;;12.63;68.88;100068.78;5494795;26;41685;-81
2024/04/13 01:45:25;;;;;;;2.73;1.80;;;;;;;12.67;69.68;100084.50;5492667;26;42972;-79
2024/04/13 01:47:51;;;;;;;2.10;1.97;;;;;;;12.59;69.67;100071.59;5494751;26;42204;-79
2024/04/13 01:50:21;;;;;;;1.83;1.40;;;;;;;12.55;69.54;100062.06;5494533;26;40171;-81
2024/04/13 01:52:47;;;;;;;1.40;1.27;;;;;;;12.61;69.69;100076.00;5492979;26;41793;-79
2024/04/13 01:55:16;;;;;;;1.50;1.40;;;;;;;12.63;69.34;100087.38;5494567;26;42627;-79
2024/04/13 01:57:43;;;;;;;2.43;1.50;;;;;;;12.59;69.54;100087.56;5462283;26;42387;-81
2024/04/13 02:00:16;;;;;;;1.50;1.40;;;;;;;12.58;69.79;100085.84;5492695;26;40375;-79
2024/04/13 02:02:42;;;;;;;1.90;1.67;;;;;;;12.56;69.43;100092.16;5494286;26;42741;-79
2024/04/13 02:05:11;;;;;;;1.60;1.50;;;;;;;12.53;69.50;100090.50;5494485;26;43066;-80
2024/04/13 02:07:38;;;;;;;2.57;1.50;;;;;;;12.50;69.33;100080.03;5494270;26;43081;-79
2024/04/13 02:10:10;;;;;;;3.53;1.70;;;;;;;12.41;69.80;100074.31;5493988;26;41190;-76
2024/04/13 02:12:37;;;;;;;1.77;1.30;;;;;;;12.44;69.81;100079.50;5494408;26;41647;-81
2024/04/13 02:15:06;;;;;;;1.87;1.67;;;;;;;12.43;69.73;100083.94;5494063;26;42885;-78
2024/04/13 02:17:35;;;;;;;3.00;1.50;;;;;;;12.40;69.69;100084.09;5494242;26;43306;-80
2024/04/13 02:20:05;;;;;;;3.07;1.50;;;;;;;12.38;69.82;100085.09;5494404;26;40337;-81
2024/04/13 02:22:35;;;;;;;1.90;1.47;;;;;;;12.34;69.92;100084.41;5494230;26;42957;-79
2024/04/13 02:25:04;;;;;;;2.00;1.50;;;;;;;12.19;70.45;100053.31;5492457;26;41150;-78
2024/04/13 02:27:35;;;;;;;2.17;1.60;;;;;;;12.05;70.12;100039.84;5494245;26;43729;-77
2024/04/13 02:30:05;;;;;;;1.80;1.70;;;;;;;12.27;70.20;100072.38;5492160;26;39734;-77
2024/04/13 02:32:31;;;;;;;1.43;1.33;;;;;;;12.12;70.29;100052.72;5491308;26;42384;-83
2024/04/13 02:35:03;;;;;;;1.63;1.53;;;;;;;12.24;70.53;100070.72;5492172;26;42622;-79
2024/04/13 02:37:29;;;;;;;1.77;1.43;;;;;;;12.11;70.15;100047.53;5494306;26;43457;-80
2024/04/13 02:39:59;;;;;;;1.50;1.40;;;;;;;12.13;70.74;100058.91;5492368;26;40758;-82
2024/04/13 02:42:25;;;;;;;1.73;1.40;;;;;;;12.21;70.55;100067.38;5492544;26;41474;-80
2024/04/13 02:44:54;;;;;;;2.47;1.70;;;;;;;12.10;70.56;100054.63;5492052;26;42874;-77
2024/04/13 02:47:21;;;;;;;2.00;1.50;;;;;;;12.17;70.95;100065.78;5492652;26;41067;-79
2024/04/13 02:49:50;;;;;;;1.93;1.47;;;;;;;12.16;70.48;100072.91;5493939;26;40200;-78
2024/04/13 02:52:20;;;;;;;1.33;1.23;;;;;;;11.99;70.68;100050.78;5493841;26;41510;-80
2024/04/13 02:54:49;;;;;;;2.07;1.30;;;;;;;12.12;70.71;100083.75;5491915;26;42948;-79
2024/04/13 02:57:15;;;;;;;2.03;1.50;;;;;;;12.03;71.16;100063.81;5492530;26;43317;-83
2024/04/13 02:59:45;;;;;;;1.40;1.30;;;;;;;11.89;71.20;100045.03;5493585;26;40197;-80
2024/04/13 03:02:12;;;;;;;1.83;1.33;;;;;;;11.94;71.76;100047.50;5494004;26;41543;-78
2024/04/13 03:04:41;;;;;;;1.97;1.50;;;;;;;12.03;72.11;100070.91;5492075;26;42950;-81
2024/04/13 03:07:08;;;;;;;3.17;1.63;;;;;;;11.94;72.38;100063.41;5461787;26;43254;-82
2024/04/13 03:09:39;;;;;;;2.97;1.73;;;;;;;11.94;72.31;100063.41;5461938;26;40086;-81
2024/04/13 03:12:07;;;;;;;1.53;1.40;;;;;;;11.97;72.29;100074.75;5503427;26;41875;-76
2024/04/13 03:14:36;;;;;;;2.23;1.47;;;;;;;11.88;72.35;100060.09;5502687;26;42757;-79
2024/04/13 03:17:03;;;;;;;2.90;1.53;;;;;;;11.94;72.29;100068.72;5497532;26;42454;-81
2024/04/13 03:19:32;;;;;;;2.33;1.60;;;;;;;11.92;72.17;100062.63;5494038;26;40882;-82
2024/04/13 03:21:59;;;;;;;1.87;1.63;;;;;;;11.90;71.93;100059.19;5493815;26;41782;-82
2024/04/13 03:24:28;;;;;;;2.07;1.87;;;;;;;11.84;72.19;100053.25;5491798;26;43781;-78
2024/04/13 03:26:58;;;;;;;1.57;1.40;;;;;;;11.71;72.27;100041.47;5493400;26;42310;-80
2024/04/13 03:29:27;;;;;;;1.87;1.27;;;;;;;11.82;72.30;100072.84;5491554;26;41209;-81
2024/04/13 03:31:53;;;;;;;1.80;1.37;;;;;;;11.79;72.39;100075.63;5493158;26;42495;-77
2024/04/13 03:34:23;;;;;;;2.23;1.50;;;;;;;11.76;72.15;100067.81;5493391;26;42938;-80
2024/04/13 03:36:49;;;;;;;1.57;1.47;;;;;;;11.72;72.09;100068.88;5461276;26;42283;-79
2024/04/13 03:39:21;;;;;;;1.47;1.37;;;;;;;11.56;72.03;100055.47;5493429;26;39986;-77
2024/04/13 03:41:47;;;;;;;2.00;1.40;;;;;;;11.65;72.29;100076.25;5491773;26;42706;-78
2024/04/13 03:44:19;;;;;;;1.53;1.43;;;;;;;11.53;72.26;100059.13;5489240;26;42684;-78
2024/04/13 03:46:46;;;;;;;2.33;1.33;;;;;;;11.46;72.06;100057.69;5460769;26;40894;-77
2024/04/13 03:49:16;;;;;;;1.43;1.33;;;;;;;11.39;72.24;100044.78;5493024;26;40056;-81
2024/04/13 03:51:43;;;;;;;2.00;1.80;;;;;;;11.52;72.25;100072.44;5493065;26;41711;-76
2024/04/13 03:54:12;;;;;;;2.00;1.50;;;;;;;11.45;71.83;100071.91;5492862;26;44064;-79
2024/04/13 03:56:39;;;;;;;1.60;1.50;;;;;;;11.41;72.40;100056.19;5493158;26;42216;-77
2024/04/13 03:59:08;;;;;;;1.60;1.50;;;;;;;11.32;72.75;100043.34;5492915;26;40126;-79
2024/04/13 04:01:37;;;;;;;1.43;1.20;;;;;;;11.41;72.86;100064.13;5492983;26;41825;-81
2024/04/13 04:04:06;;;;;;;1.93;1.23;;;;;;;11.32;72.80;100051.31;5491098;26;42718;-79
2024/04/13 04:06:33;;;;;;;1.63;1.30;;;;;;;11.24;72.48;100041.06;5490943;26;40565;-76
2024/04/13 04:09:03;;;;;;;1.50;1.10;;;;;;;11.34;72.73;100062.72;5491145;26;40982;-78
2024/04/13 04:11:30;;;;;;;1.93;1.60;;;;;;;11.32;72.81;100069.88;5490835;26;42178;-80
2024/04/13 04:13:59;;;;;;;1.70;1.60;;;;;;;11.28;73.04;100065.63;5490800;26;42778;-80
2024/04/13 04:16:25;;;;;;;2.93;1.80;;;;;;;11.28;72.94;100058.53;5490742;26;42427;-79
2024/04/13 04:18:57;;;;;;;1.60;1.40;;;;;;;11.17;72.85;100039.63;5492560;26;40103;-78
2024/04/13 04:21:25;;;;;;;2.80;1.80;;;;;;;11.23;72.83;100055.25;5492478;26;42652;-79
2024/04/13 04:23:54;;;;;;;2.70;1.93;;;;;;;11.11;72.71;100040.78;5490658;26;43383;-76
2024/04/13 04:26:20;;;;;;;1.80;1.67;;;;;;;11.13;72.51;100049.50;5492612;26;42200;-80
2024/04/13 04:28:49;;;;;;;2.90;1.90;;;;;;;10.99;72.62;100025.44;5492289;26;41257;-80
2024/04/13 04:31:15;;;;;;;1.40;1.27;;;;;;;11.09;72.72;100055.88;5491975;26;41588;-79
2024/04/13 04:33:45;;;;;;;1.47;1.30;;;;;;;11.15;72.80;100062.69;5491832;26;44175;-82
2024/04/13 04:36:14;;;;;;;1.57;1.47;;;;;;;10.96;72.72;100041.47;5489716;26;43279;-81
2024/04/13 04:38:43;;;;;;;1.67;1.57;;;;;;;11.08;72.76;100067.41;5491800;26;41318;-79
2024/04/13 04:41:09;;;;;;;2.97;1.67;;;;;;;11.04;72.81;100057.00;5489338;26;41785;-79
2024/04/13 04:43:39;;;;;;;4.00;1.60;;;;;;;11.10;72.91;100064.69;5489764;26;42604;-78
2024/04/13 04:46:07;;;;;;;1.60;1.40;;;;;;;11.09;73.22;100065.63;5491408;26;42393;-79
2024/04/13 04:48:37;;;;;;;2.20;1.90;;;;;;;11.02;72.69;100053.56;5491424;26;40140;-81
2024/04/13 04:51:04;;;;;;;2.03;1.70;;;;;;;11.04;72.78;100055.22;5491148;26;42880;-77
2024/04/13 04:53:35;;;;;;;1.70;1.60;;;;;;;11.10;72.83;100065.56;5489263;26;42981;-81
2024/04/13 04:56:02;;;;;;;2.17;1.50;;;;;;;11.12;72.85;100061.06;5492621;26;44081;-77
2024/04/13 04:58:31;;;;;;;1.60;1.50;;;;;;;11.15;72.67;100050.28;5493064;26;42244;-77
2024/04/13 05:00:58;;;;;;;1.90;1.67;;;;;;;11.15;72.60;100050.28;5492543;26;40721;-78
2024/04/13 05:03:27;;;;;;;1.70;1.60;;;;;;;11.25;73.08;100057.84;5494621;26;42872;-77
2024/04/13 05:05:53;;;;;;;1.70;1.60;;;;;;;11.23;72.81;100049.97;5492313;26;42795;-79
2024/04/13 05:08:22;;;;;;;2.10;1.90;;;;;;;11.36;72.86;100064.38;5494712;26;40012;-78
2024/04/13 05:10:52;;;;;;;2.23;1.80;;;;;;;11.32;72.67;100033.63;5493973;26;41903;-79
2024/04/13 05:13:21;;;;;;;1.53;1.43;;;;;;;11.42;72.94;100044.63;5494597;26;42833;-77
2024/04/13 05:15:47;;;;;;;1.73;1.63;;;;;;;11.42;72.63;100045.50;5492649;26;43135;-78
2024/04/13 05:18:17;;;;;;;1.73;1.63;;;;;;;11.50;72.50;100053.09;5462293;26;38468;-79
2024/04/13 05:20:45;;;;;;;2.10;1.90;;;;;;;11.52;72.77;100052.09;5493770;26;41865;-77
2024/04/13 05:23:14;;;;;;;2.47;1.80;;;;;;;11.52;72.74;100056.53;5494319;26;44068;-76
2024/04/13 05:25:41;;;;;;;2.07;1.70;;;;;;;11.50;72.57;100053.94;5494302;26;42246;-80
2024/04/13 05:28:12;;;;;;;1.93;1.70;;;;;;;11.64;72.42;100065.72;5494422;26;41112;-79
2024/04/13 05:30:45;;;;;;;1.83;1.60;;;;;;;11.73;72.40;100067.94;5492166;26;40432;-80
2024/04/13 05:33:14;;;;;;;2.23;1.70;;;;;;;11.75;72.03;100043.06;5494433;26;44192;-76
2024/04/13 05:35:40;;;;;;;2.33;1.90;;;;;;;12.04;71.57;100059.38;5494116;26;42855;-78
2024/04/13 05:38:09;;;;;;;2.30;2.10;;;;;;;12.34;70.94;100071.13;5494477;26;41172;-78
2024/04/13 05:40:36;;;;;;;1.93;1.60;;;;;;;12.47;70.54;100069.59;5492435;26;41881;-77
2024/04/13 05:43:06;;;;;;;2.20;1.80;;;;;;;12.66;70.23;100085.44;5494251;26;42612;-79
2024/04/13 05:45:38;;;;;;;2.60;1.87;;;;;;;12.79;70.18;100080.34;5492157;26;44503;-77
2024/04/13 05:48:07;;;;;;;2.60;1.97;;;;;;;13.05;70.42;100093.13;5492984;26;40965;-78
2024/04/13 05:50:34;;;;;;;2.27;2.07;;;;;;;13.05;70.26;100071.84;5492415;26;42499;-79
2024/04/13 05:53:04;;;;;;;2.20;1.90;;;;;;;13.18;70.20;100086.25;5492608;26;43982;-77
2024/04/13 05:55:31;;;;;;;2.20;2.00;;;;;;;13.21;70.40;100088.75;5492543;26;43163;-79
2024/04/13 05:58:00;;;;;;;2.30;2.10;;;;;;;13.22;71.00;100085.16;5492799;26;40277;-77
2024/04/13 06:00:26;;;;;;;2.50;1.90;;;;;;;13.26;70.75;100100.00;5490604;26;42016;-77
2024/04/13 06:02:58;;;;;;;1.87;1.77;;;;;;;13.36;70.73;100096.81;5493912;26;43009;-79
2024/04/13 06:05:24;;;;;;;2.40;2.20;;;;;;;13.62;70.71;100099.78;5494102;26;42186;-79
2024/04/13 06:07:53;;;;;;;4.23;2.23;;;;;;;13.87;69.98;100093.94;5492648;26;41222;-78
2024/04/13 06:10:20;;;;;;;2.70;2.37;;;;;;;14.12;69.42;100090.75;5493477;26;41477;-78
2024/04/13 06:12:50;;;;;;;2.63;2.43;;;;;;;14.34;69.66;100109.06;5491969;26;42541;-78
2024/04/13 06:15:16;;;;;;;2.93;2.40;;;;;;;14.54;69.81;100108.78;5491494;26;43775;-82
2024/04/13 06:17:46;;;;;;;3.53;2.93;;;;;;;14.87;69.45;100113.03;5493816;26;40515;-79
2024/04/13 06:20:15;;;;;;;5.53;2.70;;;;;;;15.26;68.60;100118.63;5491548;26;43271;-81
2024/04/13 06:22:45;;;;;;;2.70;2.50;;;;;;;15.61;67.67;100112.91;5493586;26;42868;-78
2024/04/13 06:25:11;;;;;;;2.23;2.10;;;;;;;15.92;67.05;100128.72;5493844;26;43356;-80
2024/04/13 06:27:41;;;;;;;3.30;2.60;;;;;;;15.96;67.27;100122.22;5492695;26;40932;-80
2024/04/13 06:30:09;;;;;;;2.73;2.50;;;;;;;15.89;67.26;100123.56;5493655;26;42388;-82
2024/04/13 06:32:38;;;;;;;3.03;2.73;;;;;;;15.82;67.94;100112.41;5493623;26;42833;-78
2024/04/13 06:35:08;;;;;;;5.03;2.30;;;;;;;15.87;67.91;100122.81;5491600;26;42081;-78
2024/04/13 06:37:40;;;;;;;4.03;2.33;;;;;;;15.92;67.73;100133.22;5493930;26;41120;-77
2024/04/13 06:40:07;;;;;;;3.53;2.77;;;;;;;16.02;67.93;100126.31;5493823;26;41489;-81
2024/04/13 06:42:36;;;;;;;4.03;2.57;;;;;;;16.11;67.56;100112.34;5491856;26;43778;-78
2024/04/13 06:45:04;;;;;;;3.10;2.57;;;;;;;16.31;66.94;100113.72;5491526;26;40824;-78
2024/04/13 06:47:33;;;;;;;2.70;2.50;;;;;;;16.37;66.49;100115.97;5494002;26;41052;-83
2024/04/13 06:49:59;;;;;;;6.20;2.90;;;;;;;16.42;66.81;100105.84;5491851;26;41773;-80
2024/04/13 06:52:28;;;;;;;3.50;2.47;;;;;;;16.54;66.09;100094.34;5493578;26;44067;-82
2024/04/13 06:54:58;;;;;;;3.23;2.60;;;;;;;16.85;66.05;100111.84;5493479;26;42239;-82
2024/04/13 06:57:28;;;;;;;3.20;2.37;;;;;;;16.92;66.01;100106.97;5493788;26;41053;-78
2024/04/13 06:59:54;;;;;;;3.03;2.53;;;;;;;17.04;66.13;100098.06;5493193;26;42831;-83
2024/04/13 07:02:23;;;;;;;4.03;2.83;;;;;;;17.34;66.25;100117.34;5493787;26;42999;-79
2024/04/13 07:04:50;;;;;;;3.73;2.53;;;;;;;17.48;64.91;100079.72;5493262;26;42126;-78
2024/04/13 07:07:19;;;;;;;3.07;2.50;;;;;;;18.22;64.44;100119.00;5493782;26;40348;-79
2024/04/13 07:09:46;;;;;;;2.77;2.57;;;;;;;18.64;64.07;100122.16;5493299;26;41724;-80
2024/04/13 07:12:17;;;;;;;3.13;2.40;;;;;;;18.77;62.99;100101.47;5493639;26;42730;-80
2024/04/13 07:14:44;;;;;;;3.23;2.50;;;;;;;18.92;62.20;100113.69;5493544;26;43080;-78
2024/04/13 07:17:13;;;;;;;4.03;2.87;;;;;;;19.14;62.92;100126.34;5493740;26;40209;-79
2024/04/13 07:19:39;;;;;;;2.83;2.53;;;;;;;19.32;62.75;100129.41;5493209;26;43011;-80
2024/04/13 07:22:09;;;;;;;2.23;2.03;;;;;;;19.53;60.82;100134.97;5493693;26;42831;-82
2024/04/13 07:24:35;;;;;;;2.27;2.07;;;;;;;19.68;60.90;100113.09;5493449;26;41993;-80
2024/04/13 07:27:04;;;;;;;2.97;2.40;;;;;;;20.01;61.70;100131.03;5492176;26;40085;-80
2024/04/13 07:29:34;;;;;;;3.03;2.57;;;;;;;20.31;61.62;100127.66;5491380;26;42454;-78
2024/04/13 07:32:03;;;;;;;4.67;2.40;;;;;;;20.53;59.66;100120.50;5493523;26;44018;-80
2024/04/13 07:34:30;;;;;;;4.10;2.20;;;;;;;20.74;59.19;100113.34;5493328;26;43179;-81
2024/04/13 07:36:59;;;;;;;3.77;2.73;;;;;;;20.89;59.25;100114.75;5492087;26;38694;-83
2024/04/13 07:39:25;;;;;;;2.50;2.30;;;;;;;21.22;58.04;100118.25;5493426;26;42742;-78
2024/04/13 07:41:54;;;;;;;2.37;2.00;;;;;;;21.59;57.20;100135.59;5491983;26;42498;-80
2024/04/13 07:44:21;;;;;;;3.10;2.00;;;;;;;21.86;55.31;100135.88;5493621;26;42204;-87
2024/04/13 07:46:53;;;;;;;2.20;1.87;;;;;;;22.31;55.00;100137.28;5501821;26;41874;-79
2024/04/13 07:49:20;;;;;;;3.37;1.87;;;;;;;22.77;54.71;100125.84;5504565;26;20255;-78
2024/04/13 07:51:50;;;;;;;2.67;2.00;;;;;;;23.17;52.19;100140.03;5498669;26;44118;-83
2024/04/13 07:54:16;;;;;;;2.23;1.73;;;;;;;23.40;51.59;100145.09;5492271;26;42131;-84
2024/04/13 07:56:45;;;;;;;2.90;1.90;;;;;;;23.53;51.00;100135.69;5493961;26;41202;-80
2024/04/13 07:59:15;;;;;;;3.37;1.93;;;;;;;23.59;50.40;100145.09;5492129;26;41758;-81
2024/04/13 08:01:41;;;;;;;3.30;1.90;;;;;;;23.97;50.27;100150.34;5493393;26;42565;-79
2024/04/13 08:04:13;;;;;;;2.10;1.90;;;;;;;24.32;50.09;100148.75;5491323;26;43374;-81
2024/04/13 08:06:40;;;;;;;2.97;1.70;;;;;;;24.77;48.68;100147.84;5492330;26;41050;-85
2024/04/13 08:09:09;;;;;;;2.47;1.93;;;;;;;25.76;46.08;100163.72;5491092;26;41011;-77
2024/04/13 08:11:35;;;;;;;2.53;1.80;;;;;;;26.91;44.21;100170.41;5492970;26;42668;-83
2024/04/13 08:14:07;;;;;;;2.17;1.63;;;;;;;27.31;42.67;100151.41;5492353;26;42048;-83
2024/04/13 08:16:34;;;;;;;3.40;1.50;;;;;;;27.84;41.66;100169.00;5492641;26;42627;-81
2024/04/13 08:19:03;;;;;;;2.00;1.87;;;;;;;28.64;39.95;100156.06;5492683;26;42993;-78
2024/04/13 08:21:33;;;;;;;2.50;1.70;;;;;;;29.51;38.87;100160.16;5492850;26;43027;-78
2024/04/13 08:24:03;;;;;;;2.00;1.83;;;;;;;30.05;38.26;100148.97;5492609;26;43292;-78
2024/04/13 08:26:29;;;;;;;4.55;1.60;;;;;;;30.47;37.39;100166.53;5492982;26;39923;-79
2024/04/13 08:28:58;;;;;;;3.13;1.98;;;;;;;30.62;35.90;100181.06;5492344;26;41850;-79
2024/04/13 08:31:25;;;;;;;2.50;1.45;;;;;;;30.56;36.32;100184.53;5494186;26;43769;-78
2024/04/13 08:33:54;;;;;;;2.63;1.42;;;;;;;30.63;36.39;100171.81;5495160;26;43236;-78
2024/04/13 08:36:20;;;;;;;2.72;1.52;;;;;;;30.75;35.86;100159.31;5495736;26;40213;-81
2024/04/13 08:38:53;;;;;;;4.00;2.15;;;;;;;30.65;35.81;100175.19;5492559;26;42801;-81
2024/04/13 08:41:29;;;;;;;2.42;1.80;;;;;;;31.34;35.82;100168.09;5495339;26;42762;-80
2024/04/13 08:43:59;;;;;;;4.15;1.58;;;;;;;31.64;34.33;100148.78;5493431;26;40878;-80
2024/04/13 08:46:27;;;;;;;2.00;1.45;;;;;;;32.30;33.66;100180.16;5495390;26;40818;-77
2024/04/13 08:48:57;;;;;;;3.35;2.05;;;;;;;33.25;32.69;100164.63;5494945;26;41560;-80
2024/04/13 08:51:25;;;;;;;1.83;1.60;;;;;;;34.75;30.62;100189.19;5489335;26;42167;-77
2024/04/13 08:53:57;;;;;;;2.10;1.27;;;;;;;35.89;29.00;100203.63;5494408;26;42409;-83
2024/04/13 08:56:24;;;;;;;1.80;1.10;;;;;;;37.18;27.84;100207.97;5469991;26;40098;-82
2024/04/13 08:58:57;;;;;;;2.28;1.45;;;;;;;38.59;26.19;100206.91;5487860;26;41574;-81
2024/04/13 09:01:24;;;;;;;1.63;1.33;;;;;;;39.86;24.50;100209.22;5483059;26;42447;-82
2024/04/13 09:03:54;;;;;;;1.80;1.33;;;;;;;40.35;24.13;100184.38;5472167;26;42067;-81
2024/04/13 09:06:21;;;;;;;1.35;1.25;;;;;;;40.52;23.80;100207.38;5491638;26;39485;-80
2024/04/13 09:08:52;;;;;;;1.30;1.15;;;;;;;40.16;23.70;100204.13;5464708;26;42093;-88
2024/04/13 09:11:22;;;;;;;1.88;1.20;;;;;;;40.15;24.33;100202.44;5462581;26;42497;-87
2024/04/13 09:13:52;;;;;;;1.50;1.33;;;;;;;39.84;22.94;100211.38;5493705;26;42574;-78
2024/04/13 09:16:19;;;;;;;2.75;1.20;;;;;;;39.17;24.03;100210.53;5495012;26;41582;-82
2024/04/13 09:18:48;;;;;;;3.75;1.58;;;;;;;38.65;24.42;100186.53;5462973;26;40346;-83
2024/04/13 09:21:15;;;;;;;1.67;1.20;;;;;;;38.27;25.10;100189.03;5493148;26;45128;-86
2024/04/13 09:23:46;;;;;;;2.42;1.40;;;;;;;37.61;25.86;100165.34;5480479;26;43776;-80
2024/04/13 09:26:12;;;;;;;1.80;1.55;;;;;;;37.18;26.32;100169.28;5469159;26;41247;-84
2024/04/13 09:28:46;;;;;;;2.90;1.88;;;;;;;36.80;26.32;100157.75;5484976;26;41597;-81
2024/04/13 09:31:14;;;;;;;2.70;1.70;;;;;;;36.75;26.35;100161.22;5484805;26;42924;-85
2024/04/13 09:33:49;;;;;;;1.67;1.58;;;;;;;36.58;27.18;100149.97;5467623;26;42874;-87
2024/04/13 09:36:22;;;;;;;2.00;1.20;;;;;;;36.40;26.74;100149.16;5491910;26;38860;-87
2024/04/13 09:38:53;;;;;;;1.40;1.30;;;;;;;36.45;27.45;100158.44;5461781;26;42148;-83
2024/04/13 09:41:20;;;;;;;2.47;1.38;;;;;;;36.76;27.42;100149.09;5463952;26;43022;-85
2024/04/13 09:43:52;;;;;;;1.90;1.40;;;;;;;36.63;27.03;100128.00;5494042;26;42295;-79
2024/04/13 09:46:19;;;;;;;2.40;1.48;;;;;;;36.44;27.48;100126.38;5494202;26;41259;-88
2024/04/13 09:48:49;;;;;;;2.17;1.50;;;;;;;36.21;27.21;100124.34;5464860;26;42428;-77
2024/04/13 09:51:15;;;;;;;1.67;1.40;;;;;;;36.51;27.32;100127.13;5492717;26;41680;-85
2024/04/13 09:53:45;;;;;;;2.00;1.70;;;;;;;36.29;27.66;100109.41;5477651;26;42132;-85
2024/04/13 09:56:11;;;;;;;3.80;2.00;;;;;;;35.75;27.11;100126.78;5466532;26;41757;-87
2024/04/13 09:58:41;;;;;;;2.42;1.58;;;;;;;35.22;27.80;100107.97;5484145;26;42970;-84
2024/04/13 10:01:10;;;;;;;1.80;1.40;;;;;;;34.81;28.81;100089.25;5483273;26;42875;-81
2024/04/13 10:03:39;;;;;;;2.10;1.73;;;;;;;34.23;28.72;100062.69;5467728;26;42308;-78
2024/04/13 10:06:09;;;;;;;2.80;1.70;;;;;;;34.13;28.93;100080.69;5480328;26;41324;-80
2024/04/13 10:08:40;;;;;;;2.50;1.58;;;;;;;34.05;29.98;100073.56;5493471;26;42719;-89
2024/04/13 10:11:09;;;;;;;2.65;1.42;;;;;;;34.19;29.57;100046.84;5485727;26;43965;-85
2024/04/13 10:13:43;;;;;;;1.63;1.23;;;;;;;34.76;29.42;100076.13;5468270;26;42188;-77
2024/04/13 10:16:14;;;;;;;2.08;1.50;;;;;;;34.58;29.17;100081.53;5480459;26;40677;-84
2024/04/13 10:18:43;;;;;;;2.20;1.42;;;;;;;34.25;29.36;100089.94;5492866;26;41542;-79
2024/04/13 10:21:12;;;;;;;1.70;1.55;;;;;;;34.04;30.15;100071.03;5452881;26;44143;-90
2024/04/13 10:23:42;;;;;;;2.92;1.25;;;;;;;33.98;30.28;100060.91;5468233;26;43271;-81
2024/04/13 10:26:09;;;;;;;1.85;1.52;;;;;;;34.29;29.86;100077.47;5492541;26;40449;-80
2024/04/13 10:28:40;;;;;;;2.58;1.42;;;;;;;34.44;28.91;100078.03;5492008;26;41567;-80
2024/04/13 10:31:18;;;;;;;1.42;1.30;;;;;;;34.35;29.42;100065.63;5494125;26;43589;-80
2024/04/13 10:33:55;;;;;;;1.45;1.35;;;;;;;34.47;29.63;100060.25;5494377;26;42153;-80
2024/04/13 10:36:26;;;;;;;3.20;1.30;;;;;;;34.57;29.98;100064.19;5492644;26;40175;-81
2024/04/13 10:38:57;;;;;;;2.25;1.17;;;;;;;34.67;28.88;100071.09;5494130;26;41570;-80
2024/04/13 10:41:31;;;;;;;2.78;1.63;;;;;;;34.97;29.68;100069.44;5492304;26;41328;-81
2024/04/13 10:44:01;;;;;;;1.48;1.30;;;;;;;35.51;29.56;100067.84;5493381;26;42174;-81
2024/04/13 10:46:30;;;;;;;1.40;1.30;;;;;;;35.95;27.89;100064.84;5492316;26;42116;-81
2024/04/13 10:48:59;;;;;;;1.25;1.13;;;;;;;35.85;27.17;100070.06;5492078;26;40599;-81
2024/04/13 10:51:26;;;;;;;1.30;1.10;;;;;;;35.84;27.81;100067.53;5493983;26;43949;-80
2024/04/13 10:53:56;;;;;;;3.33;1.38;;;;;;;35.85;27.22;100070.06;5492742;26;41880;-80
2024/04/13 10:56:22;;;;;;;2.83;1.50;;;;;;;35.83;27.25;100071.34;5492173;26;39733;-80
2024/04/13 10:58:52;;;;;;;1.10;1.10;;;;;;;35.98;27.42;100057.97;5493731;26;41586;-81
2024/04/13 11:01:19;;;;;;;1.33;0.93;;;;;;;36.13;26.49;100060.34;5491823;26;42125;-80
2024/04/13 11:03:51;;;;;;;1.42;1.10;;;;;;;36.02;27.81;100044.59;5461634;26;41009;-80
2024/04/13 11:06:17;;;;;;;1.33;1.23;;;;;;;36.01;28.00;100038.22;5493661;26;41259;-81
2024/04/13 11:08:47;;;;;;;1.83;1.40;;;;;;;36.22;28.31;100036.94;5493445;26;43161;-80
2024/04/13 11:11:13;;;;;;;1.08;1.08;;;;;;;36.23;27.42;100044.09;5493172;26;43794;-80
2024/04/13 11:13:43;;;;;;;1.50;1.40;;;;;;;36.53;27.70;100016.47;5491170;26;40970;-81
2024/04/13 11:16:10;;;;;;;1.40;1.30;;;;;;;37.06;26.44;100024.75;5491036;26;40478;-80
2024/04/13 11:18:39;;;;;;;1.80;1.40;;;;;;;37.44;25.84;100040.84;5492757;26;41559;-81
2024/04/13 11:21:11;;;;;;;1.38;1.13;;;;;;;37.58;26.33;100002.75;5492948;26;43781;-80
2024/04/13 11:23:41;;;;;;;1.83;1.23;;;;;;;37.56;24.77;100024.25;5492769;26;42012;-80
2024/04/13 11:26:07;;;;;;;1.00;1.00;;;;;;;37.73;26.62;100019.66;5492915;26;39836;-80
2024/04/13 11:28:37;;;;;;;2.25;1.05;;;;;;;37.97;26.30;100007.41;5492885;26;41736;-81
2024/04/13 11:31:04;;;;;;;1.15;1.05;;;;;;;38.16;25.80;100026.63;5492588;26;43995;-80